TAF Text Data
IDs:
Format:
Raw Decoded Include METAR

Data at: 2147 UTC 01 Oct 2022

RPLL 012100Z 03002KT 9999 FEW025 SCT100 27/22 Q1009 NOSIG RMK A2980

TAF RPLL 011700Z 0118/0224 12007KT 9999 FEW025 SCT300 TX33/0206Z TN27/0120Z
  TEMPO 0118/0124 VRB02KT FEW025 BKN100
  TEMPO 0203/0209 13011KT FEW023CB SCT100